Miami, Florida
Traffic Map
Current Weather Conditions
Miami, Florida
Few Clouds
Few Clouds
27°
Feels Like: 29°
Wind Chill: 27° Ceiling: Unl
Heat Index: 29° Visibility: 10mi
Dew Point: 23° Wind: 0mph
Humidity: 79% Direction: ° ()
Pressure: 30.01in Gusts: 0mph
Raw Report DataKMIA 020953Z 00000KT 10SM FEW025 27/23 A3001 RMK AO2 SLP162 T02670228
Traffic Incident Summary
Active as of:
Severity:
Category:
InformationThere was an issue retrieving the traffic information for this location. Please try a different location or try again shortly.
Advertisements
Track Severe Weather on mobile